Time;durP1;ratioP1;P1;durP2;ratioP2;P2;SDS_P1;SDS_P2;PMS_P1;PMS_P2;Temp;Humidity;BMP_temperature;BMP_pressure;BME280_temperature;BME280_humidity;BME280_pressure;Samples;Min_cycle;Max_cycle;Signal;HPM_P1;HPM_P2
2019/11/07 00:01:43;;;;;;;3.8;2.4;;;;;;;;;;;;;
2019/11/07 00:04:08;;;;;;;4.1;2.7;;;;;;;;;;;;;
2019/11/07 00:06:33;;;;;;;2.7;2.3;;;;;;;;;;;;;
2019/11/07 00:08:58;;;;;;;4.6;2.7;;;;;;;;;;;;;
2019/11/07 00:11:23;;;;;;;3.2;2.5;;;;;;;;;;;;;
2019/11/07 00:13:48;;;;;;;3.2;2.4;;;;;;;;;;;;;
2019/11/07 00:16:14;;;;;;;4.2;2.9;;;;;;;;;;;;;
2019/11/07 00:18:39;;;;;;;2.8;2.5;;;;;;;;;;;;;
2019/11/07 00:21:04;;;;;;;2.9;2.4;;;;;;;;;;;;;
2019/11/07 00:23:29;;;;;;;3.9;2.6;;;;;;;;;;;;;
2019/11/07 00:25:54;;;;;;;4.4;2.9;;;;;;;;;;;;;
2019/11/07 00:28:19;;;;;;;3.6;2.6;;;;;;;;;;;;;
2019/11/07 00:30:45;;;;;;;3.6;2.7;;;;;;;;;;;;;
2019/11/07 00:33:10;;;;;;;3.4;2.8;;;;;;;;;;;;;
2019/11/07 00:35:35;;;;;;;2.9;2.5;;;;;;;;;;;;;
2019/11/07 00:38:00;;;;;;;4.1;2.8;;;;;;;;;;;;;
2019/11/07 00:40:25;;;;;;;5.5;3.2;;;;;;;;;;;;;
2019/11/07 00:42:50;;;;;;;3.3;3;;;;;;;;;;;;;
2019/11/07 00:45:15;;;;;;;4.3;3;;;;;;;;;;;;;
2019/11/07 00:47:40;;;;;;;3.3;3;;;;;;;;;;;;;
2019/11/07 00:50:06;;;;;;;3.6;2.9;;;;;;;;;;;;;
2019/11/07 00:52:31;;;;;;;4.3;3.4;;;;;;;;;;;;;
2019/11/07 00:54:56;;;;;;;5;3.8;;;;;;;;;;;;;
2019/11/07 00:57:21;;;;;;;4.5;3.1;;;;;;;;;;;;;
2019/11/07 00:59:46;;;;;;;3.5;2.9;;;;;;;;;;;;;
2019/11/07 01:02:11;;;;;;;3.8;3;;;;;;;;;;;;;
2019/11/07 01:04:36;;;;;;;4.2;3.5;;;;;;;;;;;;;
2019/11/07 01:07:01;;;;;;;4;3.4;;;;;;;;;;;;;
2019/11/07 01:09:26;;;;;;;3.9;3.3;;;;;;;;;;;;;
2019/11/07 01:11:51;;;;;;;3.5;3;;;;;;;;;;;;;
2019/11/07 01:14:19;;;;;;;4.1;3.1;;;;;;;;;;;;;
2019/11/07 01:19:11;;;;;;;3.8;3.3;;;;;;;;;;;;;
2019/11/07 01:21:32;;;;;;;3.3;3;;;;;;;;;;;;;
2019/11/07 01:23:57;;;;;;;5;3.4;;;;;;;;;;;;;
2019/11/07 01:26:22;;;;;;;3.6;3.1;;;;;;;;;;;;;
2019/11/07 01:28:47;;;;;;;4.6;3.3;;;;;;;;;;;;;
2019/11/07 01:31:12;;;;;;;3.8;3;;;;;;;;;;;;;
2019/11/07 01:33:37;;;;;;;3.5;3.2;;;;;;;;;;;;;
2019/11/07 01:36:02;;;;;;;4.4;3.2;;;;;;;;;;;;;
2019/11/07 01:38:28;;;;;;;3.5;3.1;;;;;;;;;;;;;
2019/11/07 01:40:53;;;;;;;3.8;3.2;;;;;;;;;;;;;
2019/11/07 01:43:18;;;;;;;3.6;3.3;;;;;;;;;;;;;
2019/11/07 01:45:43;;;;;;;3.7;3.1;;;;;;;;;;;;;
2019/11/07 01:48:08;;;;;;;4.5;3.6;;;;;;;;;;;;;
2019/11/07 01:50:33;;;;;;;4.9;3.8;;;;;;;;;;;;;
2019/11/07 01:52:58;;;;;;;4;3.6;;;;;;;;;;;;;
2019/11/07 01:55:24;;;;;;;4.4;4;;;;;;;;;;;;;
2019/11/07 01:57:49;;;;;;;4.5;4.1;;;;;;;;;;;;;
2019/11/07 02:00:14;;;;;;;4.5;3.8;;;;;;;;;;;;;
2019/11/07 02:02:39;;;;;;;4.6;3.6;;;;;;;;;;;;;
2019/11/07 02:05:04;;;;;;;5;3.8;;;;;;;;;;;;;
2019/11/07 02:07:29;;;;;;;5.7;3.8;;;;;;;;;;;;;
2019/11/07 02:09:54;;;;;;;4.4;3.6;;;;;;;;;;;;;
2019/11/07 02:12:19;;;;;;;4.4;3.7;;;;;;;;;;;;;
2019/11/07 02:14:45;;;;;;;4.2;3.5;;;;;;;;;;;;;
2019/11/07 02:17:10;;;;;;;4.5;3.8;;;;;;;;;;;;;
2019/11/07 02:19:35;;;;;;;5.3;3.9;;;;;;;;;;;;;
2019/11/07 02:22:00;;;;;;;4.5;3.7;;;;;;;;;;;;;
2019/11/07 02:24:25;;;;;;;4.9;4;;;;;;;;;;;;;
2019/11/07 02:26:50;;;;;;;4.4;4;;;;;;;;;;;;;
2019/11/07 02:29:15;;;;;;;4.4;3.9;;;;;;;;;;;;;
2019/11/07 02:31:40;;;;;;;5.2;4.4;;;;;;;;;;;;;
2019/11/07 02:34:05;;;;;;;4.9;3.7;;;;;;;;;;;;;
2019/11/07 02:36:30;;;;;;;5.1;3.7;;;;;;;;;;;;;
2019/11/07 02:38:55;;;;;;;4.8;4.1;;;;;;;;;;;;;
2019/11/07 02:41:20;;;;;;;4.2;3.8;;;;;;;;;;;;;
2019/11/07 02:43:45;;;;;;;4.4;4;;;;;;;;;;;;;
2019/11/07 02:46:11;;;;;;;5;4.1;;;;;;;;;;;;;
2019/11/07 02:48:36;;;;;;;5.5;4.3;;;;;;;;;;;;;
2019/11/07 02:51:01;;;;;;;5.1;4.1;;;;;;;;;;;;;
2019/11/07 02:53:26;;;;;;;5.3;3.8;;;;;;;;;;;;;
2019/11/07 02:55:51;;;;;;;5.2;4.1;;;;;;;;;;;;;
2019/11/07 02:58:16;;;;;;;4.8;3.9;;;;;;;;;;;;;
2019/11/07 03:00:41;;;;;;;5;3.7;;;;;;;;;;;;;
2019/11/07 03:03:06;;;;;;;4.8;3.9;;;;;;;;;;;;;
2019/11/07 03:05:31;;;;;;;5.4;4;;;;;;;;;;;;;
2019/11/07 03:07:56;;;;;;;4.3;3.9;;;;;;;;;;;;;
2019/11/07 03:10:21;;;;;;;4.5;4.1;;;;;;;;;;;;;
2019/11/07 03:12:47;;;;;;;4.4;4;;;;;;;;;;;;;
2019/11/07 03:15:12;;;;;;;4.3;3.9;;;;;;;;;;;;;
2019/11/07 03:17:37;;;;;;;4.3;3.6;;;;;;;;;;;;;
2019/11/07 03:20:02;;;;;;;4.1;3.6;;;;;;;;;;;;;
2019/11/07 03:22:27;;;;;;;3.9;3.5;;;;;;;;;;;;;
2019/11/07 03:24:52;;;;;;;4.1;3.6;;;;;;;;;;;;;
2019/11/07 03:27:17;;;;;;;4;3.6;;;;;;;;;;;;;
2019/11/07 03:29:42;;;;;;;4.6;3.5;;;;;;;;;;;;;
2019/11/07 03:32:07;;;;;;;4;3.6;;;;;;;;;;;;;
2019/11/07 03:34:32;;;;;;;3.9;3.6;;;;;;;;;;;;;
2019/11/07 03:36:57;;;;;;;3.9;3.3;;;;;;;;;;;;;
2019/11/07 03:39:22;;;;;;;4.2;3.8;;;;;;;;;;;;;
2019/11/07 03:41:47;;;;;;;5.1;3.7;;;;;;;;;;;;;
2019/11/07 03:44:12;;;;;;;4.4;3.8;;;;;;;;;;;;;
2019/11/07 03:46:38;;;;;;;4.2;3.5;;;;;;;;;;;;;
2019/11/07 03:49:03;;;;;;;4.6;4.2;;;;;;;;;;;;;
2019/11/07 03:51:28;;;;;;;4.9;4.1;;;;;;;;;;;;;
2019/11/07 03:53:53;;;;;;;5.1;4.3;;;;;;;;;;;;;
2019/11/07 03:56:18;;;;;;;4.3;3.9;;;;;;;;;;;;;
2019/11/07 03:58:43;;;;;;;4.2;3.8;;;;;;;;;;;;;
2019/11/07 04:02:28;;;;;;;5;3.8;;;;;;;5.55;93.08691;948.3361;;;;
2019/11/07 04:04:53;;;;;;;4.2;3.8;;;;;;;5.61;92.71387;948.2305;;;;
2019/11/07 04:07:18;;;;;;;5.8;3.8;;;;;;;5.48;93.54883;948.1805;;;;
2019/11/07 04:09:44;;;;;;;3.9;3.5;;;;;;;5.7;92.69824;948.1483;;;;
2019/11/07 04:12:09;;;;;;;5.9;3.9;;;;;;;5.72;91.94922;948.122;;;;
2019/11/07 04:14:34;;;;;;;4.8;3.6;;;;;;;5.69;91.67285;948.0948;;;;
2019/11/07 04:16:59;;;;;;;4.5;3.7;;;;;;;5.51;92.57617;948.0527;;;;
2019/11/07 04:19:24;;;;;;;5.5;4.2;;;;;;;5.39;94.31348;948.0284;;;;
2019/11/07 04:21:49;;;;;;;4.7;4.2;;;;;;;5.37;93.47949;947.9844;;;;
2019/11/07 04:24:14;;;;;;;5.1;4.1;;;;;;;5.28;93.79883;947.9599;;;;
2019/11/07 04:26:39;;;;;;;6.3;4.6;;;;;;;5.26;94.03613;947.8594;;;;
2019/11/07 04:29:04;;;;;;;4.3;3.7;;;;;;;5.22;93.98047;947.8812;;;;
2019/11/07 04:31:29;;;;;;;4.8;3.9;;;;;;;5.2;93.2832;947.8242;;;;
2019/11/07 04:33:55;;;;;;;5.5;3.9;;;;;;;5.07;93.94727;947.8467;;;;
2019/11/07 04:36:20;;;;;;;4.5;4;;;;;;;5.18;94.58398;947.7698;;;;
2019/11/07 04:38:45;;;;;;;5.3;4.1;;;;;;;5.29;93.62109;947.7404;;;;
2019/11/07 04:41:10;;;;;;;5.6;4.2;;;;;;;5.03;93.43945;947.7434;;;;
2019/11/07 04:43:35;;;;;;;4.4;4;;;;;;;4.98;93.96191;947.777;;;;
2019/11/07 04:46:00;;;;;;;5.9;4.3;;;;;;;4.88;95.46191;947.7467;;;;
2019/11/07 04:48:25;;;;;;;4.6;4;;;;;;;4.95;94.75977;947.6981;;;;
2019/11/07 04:50:50;;;;;;;5.2;3.7;;;;;;;5.23;92.30957;947.5938;;;;
2019/11/07 04:53:15;;;;;;;5;3.5;;;;;;;5.15;91.72559;947.5352;;;;
2019/11/07 04:55:40;;;;;;;5.2;3.5;;;;;;;5.08;92.22363;947.6142;;;;
2019/11/07 04:58:05;;;;;;;6.5;4;;;;;;;4.87;95.1416;947.5945;;;;
2019/11/07 05:00:30;;;;;;;5.1;3.7;;;;;;;4.77;93.83691;947.6797;;;;
2019/11/07 05:02:55;;;;;;;6.2;3.7;;;;;;;4.88;93.68945;947.7104;;;;
2019/11/07 05:05:21;;;;;;;4.8;3.6;;;;;;;4.82;92.71094;947.7874;;;;
2019/11/07 05:07:46;;;;;;;4.4;3.3;;;;;;;4.86;93.57227;947.8293;;;;
2019/11/07 05:10:11;;;;;;;4.9;3.6;;;;;;;4.72;93.65625;947.8722;;;;
2019/11/07 05:12:36;;;;;;;4.1;3.5;;;;;;;5;93.21777;947.78;;;;
2019/11/07 05:15:01;;;;;;;4.6;3.2;;;;;;;4.9;92.93457;947.8067;;;;
2019/11/07 05:17:26;;;;;;;3.9;3.1;;;;;;;4.77;92.80176;947.8702;;;;
2019/11/07 05:19:51;;;;;;;3.6;2.8;;;;;;;4.91;92.36719;947.8669;;;;
2019/11/07 05:22:16;;;;;;;5.5;3.6;;;;;;;4.94;93.04297;947.8851;;;;
2019/11/07 05:24:41;;;;;;;4.1;3.3;;;;;;;4.87;92.43652;947.8326;;;;
2019/11/07 05:27:06;;;;;;;4.2;3;;;;;;;4.94;92.46582;947.8109;;;;
2019/11/07 05:29:31;;;;;;;4;3;;;;;;;4.82;92.7334;947.8375;;;;
2019/11/07 05:31:58;;;;;;;4.7;2.9;;;;;;;4.96;91.93555;947.8024;;;;
2019/11/07 05:34:22;;;;;;;4.5;3.1;;;;;;;4.92;92.10742;947.7087;;;;
2019/11/07 05:36:47;;;;;;;4.1;3.3;;;;;;;4.81;92.45898;947.6845;;;;
2019/11/07 05:39:12;;;;;;;6.4;3.2;;;;;;;4.79;92.76172;947.6472;;;;
2019/11/07 05:41:37;;;;;;;4.1;3;;;;;;;4.99;91.42969;947.7189;;;;
2019/11/07 05:44:02;;;;;;;5.6;3.1;;;;;;;4.82;92.29297;947.7269;;;;
2019/11/07 05:46:27;;;;;;;4.6;3.1;;;;;;;4.68;92.60059;947.7802;;;;
2019/11/07 05:48:52;;;;;;;2.9;2.6;;;;;;;4.74;92.875;947.7452;;;;
2019/11/07 05:51:17;;;;;;;4.2;2.8;;;;;;;4.79;92.39844;947.7173;;;;
2019/11/07 05:53:42;;;;;;;3.2;2.6;;;;;;;4.79;92.00098;947.7464;;;;
2019/11/07 05:56:08;;;;;;;3.3;2.8;;;;;;;4.8;91.62793;947.7417;;;;
2019/11/07 05:58:33;;;;;;;3.3;2.4;;;;;;;4.87;91.59668;947.7422;;;;
2019/11/07 06:00:58;;;;;;;4.7;2.9;;;;;;;4.79;91.95508;947.7045;;;;
2019/11/07 06:03:23;;;;;;;3.8;2.6;;;;;;;4.8;92.10547;947.7869;;;;
2019/11/07 06:05:48;;;;;;;2.9;2.5;;;;;;;4.76;91.19824;947.824;;;;
2019/11/07 06:08:13;;;;;;;3.2;2.6;;;;;;;4.61;92.37109;947.8401;;;;
2019/11/07 06:10:38;;;;;;;5;2.8;;;;;;;4.71;91.87012;947.9253;;;;
2019/11/07 06:13:03;;;;;;;3.4;2.5;;;;;;;4.71;92.01758;947.96;;;;
2019/11/07 06:15:29;;;;;;;3.4;2.7;;;;;;;4.75;91.0166;948.0173;;;;
2019/11/07 06:17:54;;;;;;;4.3;2.7;;;;;;;4.66;91.8584;948.0773;;;;
2019/11/07 06:20:19;;;;;;;5.2;2.9;;;;;;;4.7;91.1416;948.1334;;;;
2019/11/07 06:22:44;;;;;;;4.9;2.9;;;;;;;4.66;91.42871;948.1469;;;;
2019/11/07 06:25:20;;;;;;;6;2.9;;;;;;;4.79;91.45605;948.0692;;;;
2019/11/07 06:27:45;;;;;;;4.8;2.8;;;;;;;4.82;90.99609;948.0892;;;;
2019/11/07 06:30:10;;;;;;;6.4;2.8;;;;;;;4.72;91.16992;948.1175;;;;
2019/11/07 06:32:35;;;;;;;5.6;3.1;;;;;;;4.44;92.83301;948.0668;;;;
2019/11/07 06:35:00;;;;;;;3.4;2.7;;;;;;;4.58;92.16992;948.1209;;;;
2019/11/07 06:37:25;;;;;;;4.2;3.1;;;;;;;4.46;93.04297;948.178;;;;
2019/11/07 06:39:50;;;;;;;8.4;5.3;;;;;;;4.5;92.5957;948.1899;;;;
2019/11/07 06:42:15;;;;;;;4.7;3.6;;;;;;;4.69;92.01563;948.212;;;;
2019/11/07 06:44:41;;;;;;;3.9;3.3;;;;;;;4.72;91.76953;948.1795;;;;
2019/11/07 06:47:06;;;;;;;5.6;3;;;;;;;4.64;91.37988;948.1837;;;;
2019/11/07 06:49:31;;;;;;;5.9;3.3;;;;;;;4.63;91.94336;948.1122;;;;
2019/11/07 06:51:56;;;;;;;4;3.3;;;;;;;4.65;92.1748;948.0386;;;;
2019/11/07 06:54:21;;;;;;;4.7;2.9;;;;;;;4.81;91.3125;948.0041;;;;
2019/11/07 06:56:46;;;;;;;4;2.8;;;;;;;4.85;91.71875;947.9753;;;;
2019/11/07 06:59:11;;;;;;;4.5;3.4;;;;;;;4.83;91.75879;947.9255;;;;
2019/11/07 07:01:36;;;;;;;6.4;3.8;;;;;;;4.98;90.53223;947.9724;;;;
2019/11/07 07:04:01;;;;;;;6;3.9;;;;;;;4.96;91.41309;947.9816;;;;
2019/11/07 07:06:26;;;;;;;4.3;3.2;;;;;;;5.03;91.03027;948.0631;;;;
2019/11/07 07:08:51;;;;;;;6.8;3.7;;;;;;;4.78;92.56641;948.0833;;;;
2019/11/07 07:11:16;;;;;;;6.8;3.5;;;;;;;4.84;93.01172;948.1727;;;;
2019/11/07 07:13:41;;;;;;;8.1;3.5;;;;;;;4.66;92.3584;948.1984;;;;
2019/11/07 07:16:07;;;;;;;7.4;3.4;;;;;;;4.74;92.43262;948.2213;;;;
2019/11/07 07:18:32;;;;;;;7.5;3.7;;;;;;;4.88;91.92969;948.1511;;;;
2019/11/07 07:20:57;;;;;;;5.8;3.2;;;;;;;5.04;90.94141;948.085;;;;
2019/11/07 07:23:22;;;;;;;6.4;3.1;;;;;;;5.09;90.79395;947.9982;;;;
2019/11/07 07:25:47;;;;;;;7.3;3.3;;;;;;;5.11;89.96777;948.0016;;;;
2019/11/07 07:28:12;;;;;;;7.2;3.1;;;;;;;5.23;90.16113;948.0719;;;;
2019/11/07 07:30:37;;;;;;;4.4;3.2;;;;;;;5.18;89.83398;948.1188;;;;
2019/11/07 07:33:02;;;;;;;5.8;3.2;;;;;;;5.19;90.76953;948.0527;;;;
2019/11/07 07:35:27;;;;;;;5;3.1;;;;;;;5.16;89.33203;948.0698;;;;
2019/11/07 07:37:53;;;;;;;4.9;2.8;;;;;;;5.37;89.44336;948.0611;;;;
2019/11/07 07:40:18;;;;;;;5;3.3;;;;;;;5.14;90.24609;948.0176;;;;
2019/11/07 07:42:43;;;;;;;5.9;3.3;;;;;;;5.22;90.28613;947.9822;;;;
2019/11/07 07:45:09;;;;;;;5.9;3.9;;;;;;;5.2;91.7832;947.9324;;;;
2019/11/07 07:47:34;;;;;;;6.3;3.6;;;;;;;5.22;91.22949;947.8925;;;;
2019/11/07 07:49:59;;;;;;;5.7;3.3;;;;;;;5.41;89.80273;947.8275;;;;
2019/11/07 07:52:24;;;;;;;5.7;3.5;;;;;;;5.55;89.81055;947.7906;;;;
2019/11/07 07:54:49;;;;;;;6.4;3.7;;;;;;;5.49;90.45703;947.8074;;;;
2019/11/07 07:57:15;;;;;;;7.7;4;;;;;;;5.41;90.59863;947.7709;;;;
2019/11/07 07:59:40;;;;;;;7.7;3.8;;;;;;;5.52;90.48535;947.7601;;;;
2019/11/07 08:02:05;;;;;;;5.9;3.5;;;;;;;5.64;88.94141;947.7302;;;;
2019/11/07 08:04:30;;;;;;;4.6;3.5;;;;;;;5.72;89.7666;947.7302;;;;
2019/11/07 08:06:55;;;;;;;5.7;3.4;;;;;;;5.78;89.05078;947.6722;;;;
2019/11/07 08:09:21;;;;;;;4.8;2.9;;;;;;;5.77;88.85547;947.5994;;;;
2019/11/07 08:11:47;;;;;;;4.9;2.8;;;;;;;5.66;89.77637;947.498;;;;
2019/11/07 08:14:11;;;;;;;5;2.7;;;;;;;5.79;89.50684;947.4807;;;;
2019/11/07 08:16:36;;;;;;;3.2;2.3;;;;;;;5.97;88.79395;947.4445;;;;
2019/11/07 08:19:01;;;;;;;5.2;2.5;;;;;;;6.06;87.6377;947.3878;;;;
2019/11/07 08:21:26;;;;;;;2.6;2.2;;;;;;;6.21;87.71484;947.4037;;;;
2019/11/07 08:23:51;;;;;;;3.4;2.1;;;;;;;6.19;87.51758;947.3447;;;;
2019/11/07 08:26:16;;;;;;;3.3;2.1;;;;;;;6.3;88.01758;947.3875;;;;
2019/11/07 08:28:41;;;;;;;3.7;1.9;;;;;;;6.32;87.03027;947.3603;;;;
2019/11/07 08:31:07;;;;;;;4.2;2;;;;;;;6.35;86.93652;947.4433;;;;
2019/11/07 08:33:32;;;;;;;4.5;2;;;;;;;6.49;87.85352;947.4406;;;;
2019/11/07 08:35:57;;;;;;;3.3;2;;;;;;;6.47;86.41309;947.3982;;;;
2019/11/07 08:38:23;;;;;;;3.4;1.8;;;;;;;6.62;86.47656;947.3865;;;;
2019/11/07 08:40:48;;;;;;;2.8;1.8;;;;;;;6.71;87.30566;947.3295;;;;
2019/11/07 08:43:13;;;;;;;3.4;1.8;;;;;;;6.86;84.93945;947.3121;;;;
2019/11/07 08:45:38;;;;;;;3.2;1.8;;;;;;;7;84.07715;947.2954;;;;
2019/11/07 08:48:03;;;;;;;3.4;1.8;;;;;;;7.01;83.81641;947.3416;;;;
2019/11/07 08:50:28;;;;;;;3;1.9;;;;;;;7.12;83.24414;947.3259;;;;
2019/11/07 08:52:54;;;;;;;3.1;1.7;;;;;;;7.3;82.45801;947.3403;;;;
2019/11/07 08:55:19;;;;;;;2.6;1.4;;;;;;;7.24;81.95508;947.2667;;;;
2019/11/07 08:57:44;;;;;;;3.6;1.5;;;;;;;7.29;82.54785;947.3083;;;;
2019/11/07 09:00:11;;;;;;;3.4;1.8;;;;;;;7.39;82.3252;947.2797;;;;
2019/11/07 09:02:36;;;;;;;2.5;1.7;;;;;;;7.49;81.52051;947.1721;;;;
2019/11/07 09:05:01;;;;;;;2.6;1.6;;;;;;;7.61;81.75;947.1069;;;;
2019/11/07 09:07:26;;;;;;;2.6;1.4;;;;;;;7.67;81.64648;947.118;;;;
2019/11/07 09:09:51;;;;;;;3.6;1.6;;;;;;;7.86;80.15137;947.1398;;;;
2019/11/07 09:12:16;;;;;;;2.9;1.4;;;;;;;7.86;79.81934;947.1099;;;;
2019/11/07 09:14:42;;;;;;;2.7;1.4;;;;;;;7.99;79.44238;947.1428;;;;
2019/11/07 09:17:07;;;;;;;3.4;1.3;;;;;;;8.01;79.75488;947.1469;;;;
2019/11/07 09:19:32;;;;;;;3.3;1.4;;;;;;;8.08;80.84375;947.1647;;;;
2019/11/07 09:21:57;;;;;;;1.9;1.3;;;;;;;8.15;78.70508;947.2058;;;;
2019/11/07 09:24:22;;;;;;;3.2;1.1;;;;;;;8.26;79.6543;947.2408;;;;
2019/11/07 09:26:47;;;;;;;3.3;1.4;;;;;;;8.47;76.66699;947.1995;;;;
2019/11/07 09:29:13;;;;;;;2.3;1.1;;;;;;;8.48;77.07129;947.2036;;;;
2019/11/07 09:31:37;;;;;;;3;1.2;;;;;;;8.48;78.18164;947.2344;;;;
2019/11/07 09:34:03;;;;;;;2.2;1.1;;;;;;;8.57;76.33105;947.2545;;;;
2019/11/07 09:36:28;;;;;;;3.8;1.2;;;;;;;8.53;77.78906;947.2438;;;;
2019/11/07 09:38:53;;;;;;;1.9;1.1;;;;;;;8.61;77.45996;947.3058;;;;
2019/11/07 09:41:19;;;;;;;2.7;1.1;;;;;;;8.68;75.99609;947.2447;;;;
2019/11/07 09:43:44;;;;;;;2.3;1.1;;;;;;;8.83;76.05566;947.2335;;;;
2019/11/07 09:46:09;;;;;;;1.9;1;;;;;;;8.76;76.69629;947.2217;;;;
2019/11/07 09:48:34;;;;;;;1.7;1.2;;;;;;;8.91;75.17578;947.2597;;;;
2019/11/07 09:50:59;;;;;;;2.8;1.8;;;;;;;9;74.02148;947.1602;;;;
2019/11/07 09:53:25;;;;;;;7.7;2.3;;;;;;;8.99;74.00781;947.1959;;;;
2019/11/07 09:55:50;;;;;;;8.3;2.1;;;;;;;9.08;73.12793;947.1379;;;;
2019/11/07 09:58:15;;;;;;;7;1.5;;;;;;;9.12;73.59473;947.1525;;;;
2019/11/07 10:00:44;;;;;;;2.3;0.8;;;;;;;9.04;72.33203;947.0915;;;;
2019/11/07 10:03:06;;;;;;;1.4;0.8;;;;;;;8.98;71.96582;947.0579;;;;
2019/11/07 10:05:31;;;;;;;2.3;0.8;;;;;;;9.06;72.39258;947.0323;;;;
2019/11/07 10:07:56;;;;;;;2;0.8;;;;;;;9.05;73.77734;947.0078;;;;
2019/11/07 10:10:21;;;;;;;3.1;1;;;;;;;9.14;71.77539;946.9739;;;;
2019/11/07 10:12:46;;;;;;;2.1;1.1;;;;;;;9.29;70.8125;946.9395;;;;
2019/11/07 10:15:11;;;;;;;3.2;1.1;;;;;;;9.4;69.75293;946.9067;;;;
2019/11/07 10:17:36;;;;;;;2.2;1.1;;;;;;;9.43;70.83594;946.8775;;;;
2019/11/07 10:20:02;;;;;;;2.8;1.2;;;;;;;9.43;71.19141;946.8767;;;;
2019/11/07 10:22:27;;;;;;;2.9;1.3;;;;;;;9.41;70.79883;946.8603;;;;
2019/11/07 10:24:52;;;;;;;2.8;1.1;;;;;;;9.51;71.99609;946.8052;;;;
2019/11/07 10:27:18;;;;;;;2.6;1.3;;;;;;;9.62;70.78613;946.8322;;;;
2019/11/07 10:29:43;;;;;;;3.3;1.3;;;;;;;9.82;69.38281;946.8514;;;;
2019/11/07 10:32:08;;;;;;;2.6;1.1;;;;;;;9.62;68.92578;946.8339;;;;
2019/11/07 10:34:33;;;;;;;2.5;1.2;;;;;;;9.68;68.99316;946.8656;;;;
2019/11/07 10:36:58;;;;;;;1.3;1;;;;;;;9.7;68.66309;946.8089;;;;
2019/11/07 10:39:23;;;;;;;1.8;1;;;;;;;9.78;69.87109;946.76;;;;
2019/11/07 10:41:49;;;;;;;2.2;1.1;;;;;;;9.89;67.75098;946.8847;;;;
2019/11/07 10:44:14;;;;;;;2.8;1;;;;;;;9.86;67.89551;946.8668;;;;
2019/11/07 10:46:39;;;;;;;2.8;1.1;;;;;;;10;67.81543;946.8328;;;;
2019/11/07 10:49:04;;;;;;;1.4;1.1;;;;;;;10.11;66.94629;946.8139;;;;
2019/11/07 10:51:30;;;;;;;2.6;1.4;;;;;;;10.03;67.36914;946.827;;;;
2019/11/07 10:53:55;;;;;;;3.5;1.4;;;;;;;10.32;67.00195;946.7953;;;;
2019/11/07 10:56:20;;;;;;;3;1.6;;;;;;;10.25;66.24316;946.743;;;;
2019/11/07 10:58:45;;;;;;;11.8;3;;;;;;;10.17;66.36816;946.7311;;;;
2019/11/07 11:01:10;;;;;;;6.9;2.6;;;;;;;10.23;66.93066;946.7316;;;;
2019/11/07 11:03:36;;;;;;;4.5;1.9;;;;;;;10.21;67.58105;946.6691;;;;
2019/11/07 11:06:01;;;;;;;4.7;2;;;;;;;9.99;67.92676;946.5847;;;;
2019/11/07 11:08:26;;;;;;;4;1.9;;;;;;;10.03;67.44141;946.5365;;;;
2019/11/07 11:10:51;;;;;;;2.8;1.7;;;;;;;10.05;68.07617;946.5154;;;;
2019/11/07 11:13:16;;;;;;;2.4;1.4;;;;;;;10.01;67.29883;946.5128;;;;
2019/11/07 11:15:41;;;;;;;1.9;1;;;;;;;10.22;66.53809;946.5045;;;;
2019/11/07 11:18:06;;;;;;;3.6;1.5;;;;;;;10.15;65.5498;946.4974;;;;
2019/11/07 11:20:32;;;;;;;4.9;1.6;;;;;;;10.1;66.51953;946.4542;;;;
2019/11/07 11:22:57;;;;;;;4.7;1.3;;;;;;;10.25;66.3584;946.5647;;;;
2019/11/07 11:25:22;;;;;;;9.5;2.1;;;;;;;10.2;65.90137;946.6649;;;;
2019/11/07 11:27:47;;;;;;;2.7;1;;;;;;;10.25;65.41504;946.7244;;;;
2019/11/07 11:30:12;;;;;;;2.2;1.2;;;;;;;10.33;65.12793;946.7759;;;;
2019/11/07 11:32:37;;;;;;;3;1.4;;;;;;;10.35;66.78906;946.8494;;;;
2019/11/07 11:35:03;;;;;;;2.7;1;;;;;;;10.51;65.02832;946.8514;;;;
2019/11/07 11:37:28;;;;;;;3.7;1.3;;;;;;;10.63;66.87891;946.8577;;;;
2019/11/07 11:39:53;;;;;;;3.2;1.1;;;;;;;10.69;65.45996;946.918;;;;
2019/11/07 11:42:19;;;;;;;2.1;0.9;;;;;;;10.72;62.53906;946.9749;;;;
2019/11/07 11:44:44;;;;;;;1;0.8;;;;;;;10.57;64.19922;946.949;;;;
2019/11/07 11:47:10;;;;;;;3.1;1.2;;;;;;;10.59;64.92578;946.9824;;;;
2019/11/07 11:49:35;;;;;;;3.4;1;;;;;;;10.59;64.85645;946.9741;;;;
2019/11/07 11:52:00;;;;;;;3.1;1.2;;;;;;;10.46;65.19434;946.9841;;;;
2019/11/07 11:54:25;;;;;;;3.8;1.1;;;;;;;10.51;67.13574;946.9679;;;;
2019/11/07 11:56:50;;;;;;;2.8;1.2;;;;;;;10.62;64.58594;946.9597;;;;
2019/11/07 11:59:15;;;;;;;3.5;1.1;;;;;;;10.57;65.5918;946.9874;;;;
2019/11/07 12:01:44;;;;;;;3.2;1.2;;;;;;;10.54;65.64258;947.0078;;;;
2019/11/07 12:04:25;;;;;;;2.4;1.2;;;;;;;10.47;67.14063;947.0943;;;;
2019/11/07 12:07:03;;;;;;;2.5;1;;;;;;;10.69;64.87207;947.0637;;;;
2019/11/07 12:09:41;;;;;;;1.8;1.2;;;;;;;10.6;65.90625;947.1136;;;;
2019/11/07 12:12:20;;;;;;;4.4;1.4;;;;;;;10.56;66.12988;947.0421;;;;
2019/11/07 12:14:58;;;;;;;4.7;1.6;;;;;;;10.63;65.61133;947.1974;;;;
2019/11/07 12:17:36;;;;;;;3.6;1.4;;;;;;;10.57;66.07227;947.2335;;;;
2019/11/07 12:20:14;;;;;;;3.3;1.3;;;;;;;10.63;67.46484;947.2211;;;;
2019/11/07 12:22:52;;;;;;;4.2;1.4;;;;;;;10.72;66.46582;947.2079;;;;
2019/11/07 12:25:30;;;;;;;1.6;1.1;;;;;;;10.81;64.9834;947.1458;;;;
2019/11/07 12:28:09;;;;;;;3.7;1.1;;;;;;;10.85;65.55176;947.1627;;;;
2019/11/07 12:30:47;;;;;;;2.2;1.1;;;;;;;10.92;64.69922;947.1236;;;;
2019/11/07 12:33:25;;;;;;;2.6;1.3;;;;;;;11.13;66.05664;947.1002;;;;
2019/11/07 12:36:03;;;;;;;3;1;;;;;;;11.05;63.39355;947.0751;;;;
2019/11/07 12:38:41;;;;;;;1.5;1;;;;;;;11.12;65.93945;947.1049;;;;
2019/11/07 12:41:19;;;;;;;3.8;1.2;;;;;;;11.08;65.21875;947.0921;;;;
2019/11/07 12:43:58;;;;;;;3.6;1.3;;;;;;;11.04;63.9209;947.1703;;;;
2019/11/07 12:46:36;;;;;;;1.9;1.1;;;;;;;11.07;64.42285;947.093;;;;
2019/11/07 12:49:14;;;;;;;1.9;1.5;;;;;;;11.15;64.4668;947.0991;;;;
2019/11/07 12:51:52;;;;;;;3.2;1.3;;;;;;;11.03;63.75879;947.084;;;;
2019/11/07 12:54:17;;;;;;;4.7;2;;;;;;;11.11;64.33496;947.0015;;;;
2019/11/07 12:56:42;;;;;;;5.1;1.8;;;;;;;10.98;64.52344;947.1454;;;;
2019/11/07 12:59:07;;;;;;;2.2;1.2;;;;;;;11.06;64.38477;947.2935;;;;
2019/11/07 13:01:32;;;;;;;2.2;1.3;;;;;;;11.07;64.91895;947.3066;;;;
2019/11/07 13:03:57;;;;;;;4.1;1.6;;;;;;;11.22;64.77734;947.3812;;;;
2019/11/07 13:06:23;;;;;;;3.1;1.1;;;;;;;11.2;65.38574;947.479;;;;
2019/11/07 13:08:48;;;;;;;2.9;1.1;;;;;;;11.32;64.22754;947.4883;;;;
2019/11/07 13:11:13;;;;;;;2;1.2;;;;;;;11.26;66.5957;947.5839;;;;
2019/11/07 13:13:38;;;;;;;2.1;1.1;;;;;;;11.22;63.56836;947.5549;;;;
2019/11/07 13:16:03;;;;;;;4.1;1.1;;;;;;;11.25;64.32324;947.6648;;;;
2019/11/07 13:18:28;;;;;;;2.5;0.9;;;;;;;11.26;63.55078;947.7471;;;;
2019/11/07 13:20:53;;;;;;;2.2;1;;;;;;;11.29;63.66016;947.7535;;;;
2019/11/07 13:23:18;;;;;;;2.1;1.1;;;;;;;11.39;62.68262;947.8019;;;;
2019/11/07 13:25:43;;;;;;;1.3;0.8;;;;;;;11.31;62.09473;947.7487;;;;
2019/11/07 13:28:08;;;;;;;1.6;0.9;;;;;;;11.24;61.62305;947.769;;;;
2019/11/07 13:30:33;;;;;;;1.7;0.9;;;;;;;11.42;62.89453;947.7929;;;;
2019/11/07 13:32:59;;;;;;;2.3;0.8;;;;;;;11.24;63.05273;947.7863;;;;
2019/11/07 13:35:24;;;;;;;1.9;1.1;;;;;;;11.4;61.61035;947.7957;;;;
2019/11/07 13:37:49;;;;;;;1.9;1;;;;;;;11.26;62.19043;947.8694;;;;
2019/11/07 13:40:14;;;;;;;2.8;0.9;;;;;;;11.26;62.56055;947.9167;;;;
2019/11/07 13:42:39;;;;;;;3.4;1.3;;;;;;;11.24;62.41895;947.906;;;;
2019/11/07 13:45:04;;;;;;;1.7;1.1;;;;;;;11.22;62.21973;947.8158;;;;
2019/11/07 13:47:29;;;;;;;3;1.1;;;;;;;11.3;63.98242;947.6775;;;;
2019/11/07 13:49:54;;;;;;;3.3;1;;;;;;;11.4;62.25586;947.6961;;;;
2019/11/07 13:52:19;;;;;;;2.7;1.1;;;;;;;11.3;62.37988;947.7477;;;;
2019/11/07 13:54:44;;;;;;;2.9;1;;;;;;;11.19;64.18555;947.8044;;;;
2019/11/07 13:57:10;;;;;;;2.8;1.2;;;;;;;11.07;63.38672;947.887;;;;
2019/11/07 13:59:35;;;;;;;1.8;1.1;;;;;;;10.93;63.92871;948.0453;;;;
2019/11/07 14:02:00;;;;;;;3.3;1.5;;;;;;;10.92;63.96289;948.1537;;;;
2019/11/07 14:04:25;;;;;;;4.5;1.5;;;;;;;10.86;64.19434;948.2834;;;;
2019/11/07 14:06:50;;;;;;;6.7;1.6;;;;;;;10.88;65.00293;948.2433;;;;
2019/11/07 14:09:15;;;;;;;3;1.1;;;;;;;10.91;65.35547;948.1096;;;;
2019/11/07 14:12:40;;;;;;;4.7;1.3;;;;;;;10.84;65.37891;947.9827;;;;
2019/11/07 14:14:06;;;;;;;1.8;0.8;;;;;;;10.83;67.02148;947.813;;;;
2019/11/07 14:16:31;;;;;;;2.6;0.8;;;;;;;10.88;67.58301;947.8106;;;;
2019/11/07 14:18:57;;;;;;;2.4;1;;;;;;;10.9;66.37793;947.8318;;;;
2019/11/07 14:21:22;;;;;;;1.8;0.9;;;;;;;10.84;65.86133;947.7855;;;;
2019/11/07 14:23:47;;;;;;;2.9;1;;;;;;;10.89;64.59082;947.8369;;;;
2019/11/07 14:26:12;;;;;;;1.4;1;;;;;;;10.87;65.49707;947.713;;;;
2019/11/07 14:28:37;;;;;;;2;1.2;;;;;;;10.72;67.63965;947.63;;;;
2019/11/07 14:31:02;;;;;;;1.6;1.1;;;;;;;10.69;66.57617;947.6242;;;;
2019/11/07 14:33:28;;;;;;;2.3;0.9;;;;;;;10.67;68.5293;947.6227;;;;
2019/11/07 14:35:53;;;;;;;1.5;1.1;;;;;;;10.61;66.89746;947.665;;;;
2019/11/07 14:38:18;;;;;;;2.4;1.1;;;;;;;10.82;63.98145;947.6769;;;;
2019/11/07 14:40:43;;;;;;;2.7;1;;;;;;;10.77;67.07129;947.6639;;;;
2019/11/07 14:43:08;;;;;;;2;1;;;;;;;10.59;66.44434;947.7026;;;;
2019/11/07 14:45:33;;;;;;;1.5;1.2;;;;;;;10.64;64.87598;947.81;;;;
2019/11/07 14:47:59;;;;;;;1.6;1.1;;;;;;;10.69;64.40039;947.784;;;;
2019/11/07 14:50:24;;;;;;;1.5;1;;;;;;;10.72;64.55469;947.8336;;;;
2019/11/07 14:52:49;;;;;;;1;0.9;;;;;;;10.68;65.49121;947.8042;;;;
2019/11/07 14:55:14;;;;;;;2.3;0.9;;;;;;;10.62;68.70605;947.7833;;;;
2019/11/07 14:57:40;;;;;;;1.8;1;;;;;;;10.67;69.38086;947.8557;;;;
2019/11/07 15:00:05;;;;;;;1;0.8;;;;;;;10.61;69.95996;947.9012;;;;
2019/11/07 15:02:30;;;;;;;1.2;1;;;;;;;10.6;67.73633;947.9567;;;;
2019/11/07 15:04:55;;;;;;;2.3;1;;;;;;;10.57;66.78711;947.9387;;;;
2019/11/07 15:07:20;;;;;;;2.8;1;;;;;;;10.58;70.19531;947.9233;;;;
2019/11/07 15:09:46;;;;;;;3.3;1.2;;;;;;;10.46;68.06934;947.9061;;;;
2019/11/07 15:12:11;;;;;;;2.8;1.4;;;;;;;10.54;68.4502;947.9445;;;;
2019/11/07 15:14:36;;;;;;;2.1;1.4;;;;;;;10.5;68.69824;947.9395;;;;
2019/11/07 15:17:01;;;;;;;2.7;1.8;;;;;;;10.49;69.52637;947.9827;;;;
2019/11/07 15:19:26;;;;;;;5.6;2;;;;;;;10.43;72.28906;948.0005;;;;
2019/11/07 15:21:51;;;;;;;4.7;2;;;;;;;10.58;70.24316;947.9737;;;;
2019/11/07 15:24:17;;;;;;;3.2;1.7;;;;;;;10.39;73.80078;948.0365;;;;
2019/11/07 15:26:42;;;;;;;3.6;2;;;;;;;10.33;70.79883;948.1041;;;;
2019/11/07 15:29:07;;;;;;;2.7;2.2;;;;;;;10.49;69.29492;948.1635;;;;
2019/11/07 15:31:32;;;;;;;3.3;2;;;;;;;10.34;70.25;948.2032;;;;
2019/11/07 15:33:57;;;;;;;4.3;2.2;;;;;;;10.28;70.44629;948.1828;;;;
2019/11/07 15:36:22;;;;;;;3.8;2;;;;;;;10.32;70.46484;948.1994;;;;
2019/11/07 15:38:47;;;;;;;4.3;2.5;;;;;;;10.26;71.38477;948.2214;;;;
2019/11/07 15:41:12;;;;;;;4.3;2.7;;;;;;;10.27;70.60645;948.1854;;;;